createdAt,value
2018-05-11T00:00:25.714Z,12.70
2018-05-11T00:02:54.620Z,12.60
2018-05-11T00:05:23.497Z,12.53
2018-05-11T00:07:52.376Z,13.37
2018-05-11T00:10:21.280Z,10.40
2018-05-11T00:12:50.153Z,12.90
2018-05-11T00:15:19.066Z,12.50
2018-05-11T00:17:47.953Z,13.33
2018-05-11T00:20:16.847Z,12.03
2018-05-11T00:22:45.740Z,11.43
2018-05-11T00:25:14.658Z,12.03
2018-05-11T00:27:43.532Z,12.60
2018-05-11T00:30:12.419Z,10.77
2018-05-11T00:32:41.314Z,12.17
2018-05-11T00:35:10.270Z,12.03
2018-05-11T00:37:39.154Z,13.37
2018-05-11T00:40:08.068Z,12.30
2018-05-11T00:42:36.940Z,12.87
2018-05-11T00:45:05.809Z,13.50
2018-05-11T00:47:34.715Z,12.20
2018-05-11T00:50:03.614Z,13.40
2018-05-11T00:52:32.492Z,13.37
2018-05-11T00:55:07.199Z,14.00
2018-05-11T00:57:36.089Z,14.63
2018-05-11T01:00:04.969Z,11.77
2018-05-11T01:02:33.862Z,14.20
2018-05-11T01:05:02.988Z,12.83
2018-05-11T01:07:31.872Z,13.57
2018-05-11T01:10:00.766Z,13.23
2018-05-11T01:12:29.736Z,13.40
2018-05-11T01:14:59.535Z,14.70
2018-05-11T01:17:28.443Z,12.60
2018-05-11T01:19:57.581Z,14.43
2018-05-11T01:22:26.444Z,14.67
2018-05-11T01:24:55.369Z,12.60
2018-05-11T01:27:24.242Z,11.80
2018-05-11T01:29:53.106Z,12.80
2018-05-11T01:32:22.390Z,14.23
2018-05-11T01:34:51.293Z,12.60
2018-05-11T01:37:20.184Z,14.27
2018-05-11T01:39:49.233Z,14.00
2018-05-11T01:42:18.099Z,13.70
2018-05-11T01:44:46.981Z,13.03
2018-05-11T01:47:15.894Z,14.30
2018-05-11T01:49:44.762Z,14.10
2018-05-11T01:52:13.641Z,13.60
2018-05-11T01:54:42.562Z,14.13
2018-05-11T01:57:11.451Z,14.30
2018-05-11T01:59:41.050Z,14.07
2018-05-11T02:02:09.955Z,13.77
2018-05-11T02:04:38.829Z,15.87
2018-05-11T02:07:07.701Z,16.60
2018-05-11T02:09:36.606Z,15.90
2018-05-11T02:12:05.515Z,16.53
2018-05-11T02:14:34.440Z,17.30
2018-05-11T02:17:03.333Z,16.53
2018-05-11T02:19:32.418Z,16.87
2018-05-11T02:22:01.457Z,14.90
2018-05-11T02:24:30.565Z,16.13
2018-05-11T02:26:59.626Z,16.97
2018-05-11T02:29:28.515Z,16.83
2018-05-11T02:31:57.414Z,16.50
2018-05-11T02:34:26.291Z,15.80
2018-05-11T02:36:55.168Z,18.17
2018-05-11T02:39:24.069Z,19.50
2018-05-11T02:41:52.949Z,17.40
2018-05-11T02:44:21.830Z,19.33
2018-05-11T02:46:50.723Z,16.80
2018-05-11T02:49:19.609Z,22.13
2018-05-11T02:51:48.493Z,22.23
2018-05-11T02:54:17.387Z,19.13
2018-05-11T02:56:46.271Z,18.50
2018-05-11T02:59:15.173Z,20.53
2018-05-11T03:01:44.078Z,17.90
2018-05-11T03:04:12.954Z,19.10
2018-05-11T03:06:44.447Z,20.47
2018-05-11T03:09:13.341Z,19.27
2018-05-11T03:11:42.227Z,20.30
2018-05-11T03:14:11.240Z,22.30
2018-05-11T03:16:40.110Z,22.50
2018-05-11T03:19:09.016Z,20.90
2018-05-11T03:21:37.920Z,22.70
2018-05-11T03:24:06.818Z,20.40
2018-05-11T03:26:35.700Z,21.53
2018-05-11T03:29:04.644Z,21.90
2018-05-11T03:31:33.687Z,20.33
2018-05-11T03:34:02.588Z,22.93
2018-05-11T03:36:31.481Z,21.50
2018-05-11T03:39:00.370Z,22.70
2018-05-11T03:41:29.254Z,21.00
2018-05-11T03:43:58.165Z,19.90
2018-05-11T03:46:27.025Z,19.33
2018-05-11T03:48:55.921Z,19.60
2018-05-11T03:51:24.807Z,19.30
2018-05-11T03:53:53.744Z,18.03
2018-05-11T03:56:22.657Z,17.90
2018-05-11T03:58:51.573Z,18.70
2018-05-11T04:01:26.169Z,19.10
2018-05-11T04:04:00.838Z,19.00
2018-05-11T04:06:35.634Z,18.47
2018-05-11T04:09:04.505Z,19.43
2018-05-11T04:11:33.368Z,16.63
2018-05-11T04:14:03.023Z,18.23
2018-05-11T04:16:31.994Z,17.87
2018-05-11T04:19:00.876Z,15.87
2018-05-11T04:21:29.745Z,16.57
2018-05-11T04:23:58.620Z,18.37
2018-05-11T04:26:27.493Z,15.97
2018-05-11T04:28:57.086Z,16.13
2018-05-11T04:31:26.103Z,17.43
2018-05-11T04:33:54.963Z,15.40
2018-05-11T04:36:23.834Z,13.80
2018-05-11T04:38:52.723Z,15.93
2018-05-11T04:41:21.596Z,14.10
2018-05-11T04:43:50.483Z,15.53
2018-05-11T04:46:19.385Z,17.23
2018-05-11T04:48:48.272Z,16.30
2018-05-11T04:51:17.150Z,16.47
2018-05-11T04:53:46.046Z,16.93
2018-05-11T04:56:15.250Z,16.47
2018-05-11T04:58:44.154Z,17.97
2018-05-11T05:01:13.080Z,16.20
2018-05-11T05:03:42.034Z,16.73
2018-05-11T05:06:10.902Z,17.07
2018-05-11T05:08:39.799Z,17.73
2018-05-11T05:11:08.690Z,15.87
2018-05-11T05:13:37.556Z,15.97
2018-05-11T05:16:06.448Z,17.50
2018-05-11T05:18:35.323Z,17.50
2018-05-11T05:21:04.218Z,15.23
2018-05-11T05:23:33.137Z,13.83
2018-05-11T05:26:02.615Z,14.20
2018-05-11T05:28:31.502Z,14.47
2018-05-11T05:31:00.639Z,15.40
2018-05-11T05:33:29.509Z,15.33
2018-05-11T05:35:58.397Z,15.73
2018-05-11T05:38:27.291Z,14.80
2018-05-11T05:40:56.161Z,15.77
2018-05-11T05:43:25.056Z,16.63
2018-05-11T05:45:53.959Z,15.40
2018-05-11T05:48:22.844Z,16.10
2018-05-11T05:50:51.741Z,16.83
2018-05-11T05:53:20.638Z,19.87
2018-05-11T05:55:49.509Z,18.80
2018-05-11T05:58:18.372Z,18.20
2018-05-11T06:00:47.283Z,17.87
2018-05-11T06:03:16.185Z,19.40
2018-05-11T06:05:45.054Z,19.77
2018-05-11T06:08:14.001Z,21.17
2018-05-11T06:10:42.854Z,20.80
2018-05-11T06:13:11.725Z,22.23
2018-05-11T06:15:40.654Z,19.40
2018-05-11T06:18:09.522Z,20.80
2018-05-11T06:20:38.423Z,22.00
2018-05-11T06:23:07.319Z,20.63
2018-05-11T06:25:36.229Z,21.93
2018-05-11T06:28:05.105Z,21.33
2018-05-11T06:30:34.004Z,21.30
2018-05-11T06:33:02.876Z,22.13
2018-05-11T06:35:31.741Z,21.37
2018-05-11T06:38:00.769Z,22.40
2018-05-11T06:40:29.700Z,21.70
2018-05-11T06:42:58.531Z,20.60
2018-05-11T06:45:27.433Z,18.83
2018-05-11T06:47:56.329Z,20.47
2018-05-11T06:50:25.189Z,19.50
2018-05-11T06:52:54.102Z,19.87
2018-05-11T06:55:23.145Z,18.60
2018-05-11T06:57:52.074Z,20.40
2018-05-11T07:00:20.956Z,17.30
2018-05-11T07:02:50.452Z,19.57
2018-05-11T07:05:19.585Z,19.40
2018-05-11T07:07:48.577Z,19.60
2018-05-11T07:10:17.410Z,19.97
2018-05-11T07:12:46.277Z,18.47
2018-05-11T07:15:15.180Z,18.83
2018-05-11T07:17:44.045Z,17.33
2018-05-11T07:20:12.952Z,19.27
2018-05-11T07:22:42.374Z,17.67
2018-05-11T07:25:11.754Z,17.47
2018-05-11T07:27:40.612Z,18.23
2018-05-11T07:30:09.536Z,18.23
2018-05-11T07:32:38.388Z,19.83
2018-05-11T07:35:07.263Z,17.67
2018-05-11T07:37:36.154Z,20.00
2018-05-11T07:40:05.023Z,18.80
2018-05-11T07:42:33.886Z,17.83
2018-05-11T07:45:02.781Z,18.93
2018-05-11T07:47:31.655Z,16.63
2018-05-11T07:50:00.594Z,19.00
2018-05-11T07:52:29.513Z,17.30
2018-05-11T07:54:58.372Z,21.30
2018-05-11T07:57:27.952Z,19.17
2018-05-11T07:59:56.828Z,19.30
2018-05-11T08:02:25.694Z,18.07
2018-05-11T08:04:54.560Z,19.27
2018-05-11T08:07:23.461Z,18.50
2018-05-11T08:09:52.344Z,19.67
2018-05-11T08:12:21.219Z,20.47
2018-05-11T08:14:50.096Z,18.90
2018-05-11T08:17:18.957Z,19.03
2018-05-11T08:19:47.817Z,18.63
2018-05-11T08:22:16.709Z,17.77
2018-05-11T08:24:45.584Z,18.33
2018-05-11T08:27:14.436Z,19.57
2018-05-11T08:29:43.385Z,18.57
2018-05-11T08:32:12.309Z,15.20
2018-05-11T08:34:41.177Z,15.80
2018-05-11T08:37:10.071Z,16.00
2018-05-11T08:39:38.940Z,17.87
2018-05-11T08:42:07.846Z,17.20
2018-05-11T08:44:36.796Z,18.37
2018-05-11T08:47:05.666Z,17.30
2018-05-11T08:49:34.734Z,17.33
2018-05-11T08:52:04.581Z,16.40
2018-05-11T08:54:33.445Z,14.20
2018-05-11T08:57:02.353Z,15.50
2018-05-11T08:59:31.252Z,14.17
2018-05-11T09:02:02.750Z,14.73
2018-05-11T09:04:31.648Z,13.90
2018-05-11T09:07:00.551Z,17.03
2018-05-11T09:09:29.415Z,15.27
2018-05-11T09:11:58.317Z,16.27
2018-05-11T09:14:27.199Z,14.37
2018-05-11T09:16:56.078Z,15.60
2018-05-11T09:19:25.307Z,14.90
2018-05-11T09:21:54.277Z,14.00
2018-05-11T09:24:23.172Z,14.17
2018-05-11T09:26:52.077Z,25.87
2018-05-11T09:29:21.862Z,15.67
2018-05-11T09:31:52.320Z,15.30
2018-05-11T09:34:21.297Z,14.40
2018-05-11T09:36:50.168Z,15.20
2018-05-11T09:39:19.063Z,14.60
2018-05-11T09:41:48.058Z,13.70
2018-05-11T09:44:16.922Z,14.47
2018-05-11T09:46:45.921Z,14.73
2018-05-11T09:49:29.849Z,15.20
2018-05-11T09:52:04.006Z,14.13
2018-05-11T09:54:33.937Z,14.47
2018-05-11T09:57:03.351Z,13.80
2018-05-11T09:59:32.514Z,13.97
2018-05-11T10:02:02.453Z,15.03
2018-05-11T10:04:32.026Z,14.90
2018-05-11T10:07:01.239Z,13.17
2018-05-11T10:09:30.165Z,13.37
2018-05-11T10:11:59.037Z,13.40
2018-05-11T10:14:27.895Z,15.23
2018-05-11T10:16:56.795Z,13.93
2018-05-11T10:19:25.666Z,13.33
2018-05-11T10:21:54.547Z,14.07
2018-05-11T10:24:23.446Z,12.80
2018-05-11T10:26:52.301Z,11.07
2018-05-11T10:29:23.992Z,11.10
2018-05-11T10:31:52.950Z,10.90
2018-05-11T10:34:21.814Z,10.60
2018-05-11T10:36:50.813Z,11.17
2018-05-11T10:39:19.666Z,9.50
2018-05-11T10:41:49.032Z,14.03
2018-05-11T10:44:17.950Z,13.67
2018-05-11T10:46:46.816Z,14.47
2018-05-11T10:49:15.691Z,15.50
2018-05-11T10:51:44.631Z,14.67
2018-05-11T10:54:13.513Z,14.77
2018-05-11T10:56:42.416Z,14.57
2018-05-11T10:59:11.322Z,16.50
2018-05-11T11:01:40.385Z,15.17
2018-05-11T11:26:21.287Z,13.53
2018-05-11T11:28:50.136Z,14.17
2018-05-11T11:31:19.315Z,14.77
2018-05-11T11:33:48.684Z,13.57
2018-05-11T11:36:17.541Z,13.83
2018-05-11T11:38:46.497Z,13.47
2018-05-11T11:41:15.453Z,14.40
2018-05-11T11:43:44.396Z,12.20
2018-05-11T11:46:20.005Z,12.80
2018-05-11T11:48:48.889Z,11.47
2018-05-11T11:51:17.781Z,11.77
2018-05-11T11:53:46.647Z,11.63
2018-05-11T11:56:16.314Z,13.07
2018-05-11T11:58:44.233Z,12.53
2018-05-11T12:01:12.223Z,11.23
2018-05-11T12:03:40.163Z,12.23
2018-05-11T12:06:09.191Z,11.53
2018-05-11T12:08:38.041Z,11.30
2018-05-11T12:11:07.118Z,10.23
2018-05-11T12:13:36.006Z,10.70
2018-05-11T12:16:04.950Z,10.80
2018-05-11T12:18:33.829Z,12.03
2018-05-11T12:21:02.627Z,10.20
2018-05-11T12:23:30.534Z,11.47
2018-05-11T12:25:58.477Z,10.97
2018-05-11T12:29:04.615Z,12.57
2018-05-11T12:31:46.866Z,11.43
2018-05-11T12:34:15.094Z,10.17
2018-05-11T12:36:43.162Z,9.67
2018-05-11T12:39:11.064Z,11.03
2018-05-11T12:41:39.575Z,9.83
2018-05-11T12:44:19.111Z,10.87
2018-05-11T12:46:47.042Z,10.30
2018-05-11T12:49:15.203Z,10.90
2018-05-11T12:51:43.117Z,9.50
2018-05-11T12:54:11.469Z,9.60
2018-05-11T12:56:39.394Z,12.03
2018-05-11T12:59:07.998Z,9.70
2018-05-11T13:01:37.389Z,9.60
2018-05-11T13:04:05.834Z,10.80
2018-05-11T13:06:33.746Z,9.73
2018-05-11T13:09:01.703Z,10.57
2018-05-11T13:11:29.601Z,9.97
2018-05-11T13:13:57.518Z,8.60
2018-05-11T13:16:25.525Z,9.30
2018-05-11T13:18:53.422Z,9.90
2018-05-11T13:21:21.456Z,9.37
2018-05-11T13:23:50.198Z,9.37
2018-05-11T13:26:18.418Z,9.47
2018-05-11T13:28:46.371Z,8.10
2018-05-11T13:31:23.457Z,9.00
2018-05-11T13:34:22.464Z,8.60
2018-05-11T13:36:51.393Z,8.27
2018-05-11T13:39:19.518Z,8.30
2018-05-11T13:41:48.100Z,8.30
2018-05-11T13:44:16.101Z,9.57
2018-05-11T13:46:44.015Z,9.93
2018-05-11T13:58:37.402Z,9.53
2018-05-11T14:01:05.504Z,9.57
2018-05-11T14:03:33.434Z,9.80
2018-05-11T14:06:01.345Z,9.87
2018-05-11T14:08:29.474Z,9.57
2018-05-11T14:10:57.487Z,9.57
2018-05-11T14:13:25.551Z,11.03
2018-05-11T14:15:53.996Z,10.97
2018-05-11T14:18:21.911Z,9.97
2018-05-11T14:20:50.275Z,9.57
2018-05-11T14:23:18.237Z,9.90
2018-05-11T14:25:46.157Z,9.70
2018-05-11T14:28:24.648Z,8.30
2018-05-11T14:54:13.720Z,12.40
2018-05-11T14:56:41.833Z,12.93
2018-05-11T14:59:09.791Z,12.50
2018-05-11T15:01:37.699Z,12.40
2018-05-11T15:04:06.616Z,11.33
2018-05-11T15:06:34.539Z,12.80
2018-05-11T15:09:07.144Z,11.50
2018-05-11T15:11:36.228Z,13.87
2018-05-11T15:14:04.273Z,11.47
2018-05-11T15:16:32.678Z,12.37
2018-05-11T15:19:00.759Z,13.40
2018-05-11T15:21:30.341Z,12.70
2018-05-11T15:23:59.166Z,12.07
2018-05-11T15:26:27.093Z,11.27
2018-05-11T15:28:55.183Z,10.60
2018-05-11T15:31:23.514Z,10.20
2018-05-11T15:34:06.581Z,12.60
2018-05-11T15:36:35.574Z,10.10
2018-05-11T15:39:03.508Z,12.20
2018-05-11T15:41:31.486Z,12.63
2018-05-11T15:44:00.089Z,12.30
2018-05-11T15:46:28.770Z,14.70
2018-05-11T15:48:57.239Z,11.00
2018-05-11T15:51:25.341Z,12.50
2018-05-11T15:53:54.220Z,10.77
2018-05-11T15:56:24.669Z,11.50
2018-05-11T15:58:52.850Z,11.60
2018-05-11T16:01:21.442Z,15.43
2018-05-11T16:03:49.457Z,10.90
2018-05-11T16:06:18.022Z,11.60
2018-05-11T16:08:45.973Z,8.60
2018-05-11T16:11:13.986Z,10.00
2018-05-11T16:13:42.277Z,8.53
2018-05-11T16:16:10.450Z,9.47
2018-05-11T16:18:38.440Z,9.60
2018-05-11T16:21:06.566Z,9.17
2018-05-11T16:23:34.665Z,10.77
2018-05-11T16:26:03.432Z,11.30
2018-05-11T16:28:31.449Z,11.10
2018-05-11T16:30:59.783Z,11.60
2018-05-11T16:33:27.755Z,10.80
2018-05-11T16:35:55.828Z,11.23
2018-05-11T16:38:23.736Z,9.33
2018-05-11T16:40:51.805Z,9.83
2018-05-11T16:43:20.434Z,10.20
2018-05-11T16:45:48.430Z,9.20
2018-05-11T16:48:16.350Z,8.63
2018-05-11T16:50:44.252Z,9.57
2018-05-11T16:53:12.790Z,12.20
2018-05-11T16:55:40.694Z,9.77
2018-05-11T16:58:09.466Z,9.30
2018-05-11T17:00:37.574Z,10.53
2018-05-11T17:03:05.751Z,10.20
2018-05-11T17:05:33.679Z,9.40
2018-05-11T17:08:01.719Z,9.73
2018-05-11T17:10:33.506Z,10.10
2018-05-11T17:13:01.738Z,9.53
2018-05-11T17:15:30.211Z,8.93
2018-05-11T17:17:58.114Z,8.80
2018-05-11T17:20:26.028Z,7.90
2018-05-11T17:22:54.318Z,10.53
2018-05-11T17:25:22.698Z,10.10
2018-05-11T17:27:50.885Z,9.50
2018-05-11T17:30:19.076Z,9.30
2018-05-11T17:32:47.023Z,9.07
2018-05-11T17:35:14.942Z,9.37
2018-05-11T17:37:42.934Z,9.07
2018-05-11T17:40:11.621Z,10.07
2018-05-11T17:42:39.517Z,8.87
2018-05-11T17:45:07.445Z,10.27
2018-05-11T17:51:00.382Z,8.77
2018-05-11T17:53:28.277Z,10.00
2018-05-11T17:55:56.182Z,9.53
2018-05-11T17:58:24.097Z,8.03
2018-05-11T18:00:52.002Z,9.07
2018-05-11T18:03:21.521Z,10.77
2018-05-11T18:05:50.377Z,8.73
2018-05-11T18:08:19.861Z,10.20
2018-05-11T18:10:48.731Z,9.50
2018-05-11T18:13:17.581Z,9.13
2018-05-11T18:15:46.468Z,10.17
2018-05-11T18:18:15.341Z,10.60
2018-05-11T18:20:45.221Z,10.13
2018-05-11T18:23:14.078Z,8.80
2018-05-11T18:25:42.940Z,8.83
2018-05-11T18:28:11.801Z,8.83
2018-05-11T18:30:41.514Z,8.33
2018-05-11T18:33:10.381Z,9.30
2018-05-11T18:35:39.449Z,9.50
2018-05-11T18:38:08.306Z,9.10
2018-05-11T18:40:37.169Z,9.13
2018-05-11T18:43:06.097Z,8.90
2018-05-11T18:45:35.023Z,9.47
2018-05-11T18:48:04.002Z,8.33
2018-05-11T18:50:34.246Z,9.30
2018-05-11T18:53:03.299Z,8.93
2018-05-11T18:55:32.081Z,8.83
2018-05-11T18:58:01.178Z,10.50
2018-05-11T19:00:30.091Z,9.00
2018-05-11T19:02:58.958Z,8.50
2018-05-11T19:05:27.818Z,8.70
2018-05-11T19:07:56.684Z,8.67
2018-05-11T19:10:26.520Z,9.93
2018-05-11T19:12:55.569Z,8.10
2018-05-11T19:15:24.451Z,10.13
2018-05-11T19:17:54.204Z,8.90
2018-05-11T19:20:23.147Z,10.83
2018-05-11T19:22:52.031Z,10.63
2018-05-11T19:25:20.970Z,13.80
2018-05-11T19:27:49.844Z,10.20
2018-05-11T19:30:19.246Z,9.13
2018-05-11T19:32:48.171Z,9.87
2018-05-11T19:35:17.917Z,9.37
2018-05-11T19:43:22.460Z,9.03
2018-05-11T19:45:51.377Z,10.80
2018-05-11T19:48:20.275Z,12.40
2018-05-11T19:50:49.722Z,11.07
2018-05-11T19:53:19.016Z,10.40
2018-05-11T20:08:43.386Z,10.07
2018-05-11T20:11:12.318Z,10.47
2018-05-11T20:13:41.220Z,11.80
2018-05-11T20:16:10.324Z,11.27
2018-05-11T20:18:39.250Z,10.70
2018-05-11T20:21:08.136Z,9.60
2018-05-11T20:23:37.589Z,9.30
2018-05-11T20:26:06.711Z,9.67
2018-05-11T20:28:35.564Z,9.57
2018-05-11T20:31:04.469Z,10.67
2018-05-11T20:33:33.771Z,9.40
2018-05-11T20:36:03.771Z,9.60
2018-05-11T20:38:32.642Z,9.43
2018-05-11T20:41:01.532Z,10.70
2018-05-11T20:43:30.677Z,9.47
2018-05-11T20:45:59.857Z,9.93
2018-05-11T20:48:28.816Z,9.70
2018-05-11T20:50:57.695Z,10.80
2018-05-11T20:53:30.931Z,10.00
2018-05-11T20:56:00.107Z,8.40
2018-05-11T20:58:30.088Z,9.13
2018-05-11T21:00:59.694Z,9.43
2018-05-11T21:03:28.558Z,9.77
2018-05-11T21:05:57.438Z,9.93
2018-05-11T21:08:26.332Z,10.40
2018-05-11T21:10:55.235Z,10.70
2018-05-11T21:13:24.184Z,9.77
2018-05-11T21:15:53.053Z,10.57
2018-05-11T21:18:21.944Z,10.07
2018-05-11T21:20:50.829Z,10.20
2018-05-11T21:23:19.782Z,9.20
2018-05-11T21:25:48.676Z,11.27
2018-05-11T21:28:17.550Z,9.83
2018-05-11T21:30:46.481Z,9.67
2018-05-11T21:33:15.913Z,8.83
2018-05-11T21:35:44.815Z,9.20
2018-05-11T21:38:13.696Z,10.20
2018-05-11T21:40:42.705Z,16.17
2018-05-11T21:43:11.598Z,15.50
2018-05-11T21:45:40.461Z,12.00
2018-05-11T21:48:09.330Z,13.93
2018-05-11T21:50:38.227Z,17.73
2018-05-11T21:53:07.094Z,12.97
2018-05-11T21:55:36.084Z,10.90
2018-05-11T21:58:06.336Z,10.50
2018-05-11T22:00:35.245Z,9.60
2018-05-11T22:03:04.823Z,10.90
2018-05-11T22:05:33.690Z,8.73
2018-05-11T22:08:02.923Z,10.80
2018-05-11T22:10:31.854Z,10.90
2018-05-11T22:13:00.730Z,9.77
2018-05-11T22:15:39.156Z,9.93
2018-05-11T22:18:09.507Z,10.87
2018-05-11T22:20:38.709Z,11.17
2018-05-11T22:23:07.578Z,9.80
2018-05-11T22:25:36.441Z,10.20
2018-05-11T22:28:05.314Z,8.70
2018-05-11T22:30:34.168Z,9.73
2018-05-11T22:33:03.083Z,11.90
2018-05-11T22:35:31.941Z,9.17
2018-05-11T22:38:02.480Z,9.87
2018-05-11T22:40:31.354Z,9.23
2018-05-11T22:43:00.242Z,10.83
2018-05-11T22:45:29.143Z,12.33
2018-05-11T22:47:58.049Z,12.37
2018-05-11T22:50:26.916Z,18.83
2018-05-11T22:52:55.824Z,10.87
2018-05-11T22:55:24.718Z,12.03
2018-05-11T22:57:53.602Z,15.13
2018-05-11T23:00:28.451Z,12.97
2018-05-11T23:02:57.437Z,10.53
2018-05-11T23:05:26.310Z,11.23
2018-05-11T23:07:55.178Z,12.60
2018-05-11T23:10:24.061Z,12.57
2018-05-11T23:12:53.141Z,11.53
2018-05-11T23:15:22.036Z,11.47
2018-05-11T23:17:50.919Z,10.50
2018-05-11T23:20:20.175Z,9.80
2018-05-11T23:22:49.073Z,9.63
2018-05-11T23:25:18.320Z,9.90
2018-05-11T23:27:49.264Z,9.43
2018-05-11T23:30:18.133Z,10.43
2018-05-11T23:32:47.023Z,10.60
2018-05-11T23:35:16.020Z,9.40
2018-05-11T23:37:44.881Z,9.87
2018-05-11T23:40:13.857Z,9.50
2018-05-11T23:42:42.774Z,10.37
2018-05-11T23:45:11.762Z,10.00
2018-05-11T23:47:40.622Z,9.73
2018-05-11T23:50:09.582Z,10.20
2018-05-11T23:52:38.452Z,10.33
2018-05-11T23:55:07.345Z,12.20
2018-05-11T23:57:36.245Z,13.60
